Time;durP1;ratioP1;P1;durP2;ratioP2;P2;SDS_P1;SDS_P2;PMS_P1;PMS_P2;Temp;Humidity;BMP_temperature;BMP_pressure;BME280_temperature;BME280_humidity;BME280_pressure;Samples;Min_cycle;Max_cycle;Signal;HPM_P1;HPM_P2
2022/01/18 00:01:12;;;;;;;13.00;6.30;;;;;;;-0.19;70.31;101104.38;84446;1334;24415;-79
2022/01/18 00:03:24;;;;;;;31.40;15.30;;;;;;;-0.16;70.20;101107.33;84441;1329;22603;-78
2022/01/18 00:05:33;;;;;;;39.80;18.30;;;;;;;-0.15;70.16;101108.54;84465;1330;22798;-78
2022/01/18 00:07:47;;;;;;;25.40;11.90;;;;;;;-0.15;70.19;101111.98;84445;1334;22637;-79
2022/01/18 00:09:56;;;;;;;25.90;11.50;;;;;;;-0.15;69.96;101105.61;84430;1333;23974;-79
2022/01/18 00:12:28;;;;;;;48.60;22.00;;;;;;;-0.16;70.06;101111.27;84439;1334;22677;-79
2022/01/18 00:14:42;;;;;;;33.50;15.30;;;;;;;-0.19;69.99;101113.27;84446;1335;22642;-81
2022/01/18 00:17:16;;;;;;;36.30;14.30;;;;;;;-0.21;69.91;101113.23;84406;1334;22615;-79
2022/01/18 00:19:25;;;;;;;33.20;14.40;;;;;;;-0.26;70.04;101115.38;84461;1335;23077;-79
2022/01/18 00:21:52;;;;;;;25.40;10.30;;;;;;;-0.29;70.07;101118.95;84432;1337;24196;-78
2022/01/18 00:24:06;;;;;;;16.70;9.30;;;;;;;-0.31;70.23;101118.38;84430;1333;22726;-79
2022/01/18 00:26:18;;;;;;;17.50;9.50;;;;;;;-0.33;70.20;101118.34;84485;1334;24330;-78
2022/01/18 00:28:32;;;;;;;13.70;7.20;;;;;;;-0.35;70.25;101115.20;84462;1335;25518;-78
2022/01/18 00:33:19;;;;;;;17.40;9.70;;;;;;;-0.39;69.96;101116.67;84451;1333;22606;-79
2022/01/18 00:35:33;;;;;;;20.00;9.60;;;;;;;-0.40;69.95;101119.06;84452;1335;22862;-79
2022/01/18 00:37:52;;;;;;;13.90;6.70;;;;;;;-0.40;70.28;101124.73;84451;1335;22619;-79
2022/01/18 00:40:01;;;;;;;14.50;8.70;;;;;;;-0.38;70.36;101128.88;84411;1333;22613;-81
2022/01/18 00:42:12;;;;;;;13.90;6.40;;;;;;;-0.37;70.34;101130.77;84449;1329;22776;-81
2022/01/18 00:44:23;;;;;;;22.10;10.60;;;;;;;-0.35;70.47;101136.11;84461;1333;22606;-78
2022/01/18 00:46:32;;;;;;;15.10;9.00;;;;;;;-0.34;70.45;101139.58;84426;1335;22725;-79
2022/01/18 00:48:42;;;;;;;10.30;7.10;;;;;;;-0.34;70.50;101147.46;84381;1334;22654;-79
2022/01/18 00:50:53;;;;;;;11.90;5.00;;;;;;;-0.36;70.28;101150.51;84374;1330;24286;-77
2022/01/18 00:53:10;;;;;;;10.80;6.00;;;;;;;-0.41;70.21;101154.20;84390;1334;22737;-79
2022/01/18 00:55:19;;;;;;;13.90;5.00;;;;;;;-0.45;70.48;101157.04;84453;1335;22889;-79
2022/01/18 00:57:28;;;;;;;13.20;4.90;;;;;;;-0.46;70.46;101166.42;84436;1335;24287;-79
2022/01/18 00:59:41;;;;;;;7.90;4.00;;;;;;;-0.48;70.41;101171.72;83750;1333;1003065;-80
2022/01/18 01:01:51;;;;;;;11.80;5.30;;;;;;;-0.49;70.57;101174.43;84420;1329;22669;-81
2022/01/18 01:04:03;;;;;;;17.30;7.60;;;;;;;-0.50;70.62;101178.85;84431;1334;24382;-79
2022/01/18 01:06:12;;;;;;;14.60;7.00;;;;;;;-0.54;70.68;101182.04;84456;1328;22622;-81
2022/01/18 01:08:21;;;;;;;11.50;6.80;;;;;;;-0.57;70.80;101184.55;84438;1335;22597;-81
2022/01/18 01:10:31;;;;;;;11.90;6.50;;;;;;;-0.60;70.78;101187.07;84428;1335;22653;-81
2022/01/18 01:12:42;;;;;;;37.20;16.70;;;;;;;-0.62;70.82;101189.59;83744;1333;1003102;-81
2022/01/18 01:14:53;;;;;;;16.10;7.10;;;;;;;-0.63;70.75;101189.07;84454;1334;23933;-79
2022/01/18 01:17:15;;;;;;;12.50;5.90;;;;;;;-0.63;70.87;101194.20;84464;1335;24262;-79
2022/01/18 01:19:48;;;;;;;17.90;7.90;;;;;;;-0.64;70.86;101195.56;84475;1335;22695;-81
2022/01/18 01:32:33;;;;;;;14.00;6.30;;;;;;;-0.87;70.96;101210.82;84448;1335;22707;-78
2022/01/18 01:34:41;;;;;;;;;;;;;;;-0.99;70.96;101212.61;84477;1335;24206;-80
2022/01/18 01:44:26;;;;;;;14.10;6.10;;;;;;;-1.40;71.57;101224.82;84441;1335;22617;-80
2022/01/18 01:46:38;;;;;;;10.00;4.80;;;;;;;-1.48;71.81;101223.78;84438;1325;22599;-80
2022/01/18 01:48:53;;;;;;;8.30;4.20;;;;;;;-1.54;71.75;101224.84;84419;1333;23968;-81
2022/01/18 01:51:04;;;;;;;16.30;5.00;;;;;;;-1.57;71.86;101219.98;84460;1329;22825;-78
2022/01/18 01:53:15;;;;;;;7.50;3.50;;;;;;;-1.62;72.04;101222.24;84445;1334;22621;-78
2022/01/18 01:55:25;;;;;;;9.50;5.40;;;;;;;-1.65;72.09;101224.04;84397;1335;22598;-81
2022/01/18 01:57:36;;;;;;;12.10;4.20;;;;;;;-1.68;72.34;101225.85;84427;1335;22767;-81
2022/01/18 01:59:45;;;;;;;7.30;4.50;;;;;;;-1.71;72.39;101225.77;84455;1334;25278;-79
2022/01/18 02:01:57;;;;;;;13.60;4.50;;;;;;;-1.74;72.52;101226.02;84428;1330;22838;-79
2022/01/18 02:04:06;;;;;;;8.30;4.30;;;;;;;-1.82;72.50;101219.85;84455;1326;22825;-80
2022/01/18 02:06:15;;;;;;;8.60;3.80;;;;;;;-1.87;72.79;101222.45;84484;1335;22612;-81
2022/01/18 02:08:28;;;;;;;9.50;4.30;;;;;;;-1.93;72.83;101225.36;84464;1334;22627;-80
2022/01/18 02:10:37;;;;;;;10.10;5.20;;;;;;;-2.00;72.91;101233.73;84511;1333;22740;-78
2022/01/18 02:12:46;;;;;;;6.30;3.20;;;;;;;-2.06;72.99;101239.04;84466;1333;22628;-80
2022/01/18 02:14:58;;;;;;;13.30;5.00;;;;;;;-2.13;73.04;101240.91;84483;1337;22603;-81
2022/01/18 02:22:05;;;;;;;13.00;5.40;;;;;;;-2.29;73.61;101232.09;84485;1334;22605;-79
2022/01/18 02:24:14;;;;;;;10.70;4.30;;;;;;;-2.32;73.71;101232.02;84523;1335;25429;-79
2022/01/18 02:26:23;;;;;;;6.90;3.60;;;;;;;-2.33;73.82;101236.59;84472;1332;23991;-79
2022/01/18 02:28:35;;;;;;;12.50;4.60;;;;;;;-2.37;73.87;101236.14;84479;1335;24272;-78
2022/01/18 02:30:44;;;;;;;9.10;4.70;;;;;;;-2.39;74.16;101236.26;84505;1333;22640;-79
2022/01/18 02:32:56;;;;;;;8.90;4.20;;;;;;;-2.42;74.08;101241.63;84468;1336;22897;-79
2022/01/18 02:35:05;;;;;;;9.00;5.30;;;;;;;-2.46;74.30;101244.05;84529;1336;22648;-79
2022/01/18 02:37:17;;;;;;;12.30;4.90;;;;;;;-2.49;74.28;101241.25;84469;1337;22606;-79
2022/01/18 02:39:28;;;;;;;9.20;4.40;;;;;;;-2.52;74.47;101242.02;84500;1335;22597;-80
2022/01/18 02:41:37;;;;;;;8.30;4.00;;;;;;;-2.56;74.52;101247.19;84503;1335;22608;-81
2022/01/18 02:43:50;;;;;;;13.20;4.60;;;;;;;-2.61;74.62;101250.14;84472;1334;22665;-80
2022/01/18 02:46:00;;;;;;;9.60;3.90;;;;;;;-2.65;74.58;101254.96;84369;1335;23968;-79
2022/01/18 02:48:10;;;;;;;10.80;4.70;;;;;;;-2.68;74.62;101262.73;84488;1337;24461;-79
2022/01/18 02:50:19;;;;;;;13.50;4.30;;;;;;;-2.70;74.78;101264.70;84499;1334;22787;-79
2022/01/18 02:52:28;;;;;;;9.40;3.70;;;;;;;-2.73;74.85;101260.17;84462;1333;22603;-78
2022/01/18 02:54:41;;;;;;;6.60;4.20;;;;;;;-2.75;75.01;101271.92;84451;1329;22612;-81
2022/01/18 02:56:57;;;;;;;8.70;4.20;;;;;;;-2.76;75.26;101263.68;84466;1333;23973;-82
2022/01/18 02:59:15;;;;;;;10.60;4.30;;;;;;;-2.79;75.21;101260.36;84489;1333;22608;-78
2022/01/18 03:03:53;;;;;;;10.50;3.90;;;;;;;-2.85;75.32;101267.15;84397;1335;24353;-79
2022/01/18 03:06:02;;;;;;;10.90;4.50;;;;;;;-2.89;75.69;101260.22;84462;1326;22809;-81
2022/01/18 03:08:11;;;;;;;7.10;4.20;;;;;;;-2.91;75.67;101265.60;84459;1329;22586;-81
2022/01/18 03:10:20;;;;;;;11.30;4.90;;;;;;;-2.96;75.69;101265.45;84482;1334;22673;-78
2022/01/18 03:12:30;;;;;;;12.80;4.90;;;;;;;-3.01;75.89;101265.64;84488;1335;22647;-79
2022/01/18 03:14:40;;;;;;;12.40;4.40;;;;;;;-3.05;75.96;101269.93;84470;1329;22814;-80
2022/01/18 03:16:47;;;;;;;;;;;;;;;-3.06;76.02;101270.41;84448;1336;22576;-79
2022/01/18 03:18:56;;;;;;;8.20;4.80;;;;;;;-3.10;76.16;101268.10;84458;1330;22818;-81
2022/01/18 03:21:05;;;;;;;11.30;5.20;;;;;;;-3.09;76.31;101271.71;84442;1326;22641;-81
2022/01/18 03:23:18;;;;;;;11.30;3.90;;;;;;;-3.08;76.44;101276.33;84460;1335;22565;-82
2022/01/18 03:25:30;;;;;;;6.30;3.30;;;;;;;-3.08;76.71;101279.77;84448;1334;22744;-81
2022/01/18 03:30:14;;;;;;;7.80;4.10;;;;;;;-3.06;76.77;101285.77;84006;1341;22791;-81
2022/01/18 03:32:23;;;;;;;8.40;3.80;;;;;;;-3.07;76.76;101290.70;84013;1342;22612;-82
2022/01/18 03:34:36;;;;;;;9.70;4.60;;;;;;;-3.10;76.76;101291.98;83889;1339;22831;-79
2022/01/18 03:36:48;;;;;;;9.90;4.50;;;;;;;-3.14;76.74;101293.72;84001;1331;22858;-79
2022/01/18 03:38:57;;;;;;;15.30;5.30;;;;;;;-3.17;76.97;101290.73;83869;1336;24350;-79
2022/01/18 03:41:07;;;;;;;11.80;4.30;;;;;;;-3.18;77.02;101292.39;84028;1339;22618;-78
2022/01/18 03:43:19;;;;;;;14.50;4.70;;;;;;;-3.20;76.97;101300.21;83915;1342;23955;-79
2022/01/18 03:45:31;;;;;;;12.20;3.80;;;;;;;-3.20;77.12;101300.52;84036;1340;22675;-83
2022/01/18 03:47:41;;;;;;;10.20;4.20;;;;;;;-3.20;77.22;101304.30;83999;1340;25625;-82
2022/01/18 03:49:53;;;;;;;13.80;4.40;;;;;;;-3.16;77.39;101303.73;83783;1340;303140;-78
2022/01/18 03:52:06;;;;;;;8.30;3.60;;;;;;;-3.13;77.59;101307.59;84006;1340;22645;-78
2022/01/18 03:54:22;;;;;;;7.10;3.20;;;;;;;-3.13;77.95;101311.02;84237;1335;25288;-81
2022/01/18 03:56:34;;;;;;;8.00;4.60;;;;;;;-3.12;77.73;101315.99;84464;1329;22928;-82
2022/01/18 03:58:46;;;;;;;8.30;4.00;;;;;;;-3.11;77.53;101324.87;84468;1335;22821;-82
2022/01/18 04:00:56;;;;;;;9.40;3.50;;;;;;;-3.13;77.86;101321.23;84501;1335;25472;-79
2022/01/18 04:03:05;;;;;;;7.70;3.50;;;;;;;-3.15;77.64;101326.96;84490;1335;22607;-79
2022/01/18 04:05:16;;;;;;;7.90;2.90;;;;;;;-3.17;77.68;101333.39;84516;1335;22620;-82
2022/01/18 04:07:26;;;;;;;7.90;4.00;;;;;;;-3.19;77.84;101339.46;84492;1329;24325;-82
2022/01/18 04:09:35;;;;;;;9.70;3.40;;;;;;;-3.22;77.90;101342.44;84465;1335;22975;-79
2022/01/18 04:11:44;;;;;;;6.90;2.70;;;;;;;-3.23;77.87;101345.14;84353;1335;22581;-79
2022/01/18 04:13:56;;;;;;;6.60;3.20;;;;;;;-3.24;77.98;101349.56;84350;1335;25291;-79
2022/01/18 04:16:06;;;;;;;8.00;2.90;;;;;;;-3.23;78.09;101354.20;84344;1335;22617;-80
2022/01/18 04:18:24;;;;;;;8.00;2.60;;;;;;;-3.20;78.13;101355.67;84489;1335;22629;-79
2022/01/18 04:28:10;;;;;;;9.30;2.60;;;;;;;-3.18;78.33;101366.47;84358;1334;22652;-80
2022/01/18 04:30:23;;;;;;;6.90;2.90;;;;;;;-3.20;78.39;101371.36;84479;1333;22934;-83
2022/01/18 04:32:34;;;;;;;7.30;3.00;;;;;;;-3.21;78.35;101379.83;84492;1334;22670;-83
2022/01/18 04:34:47;;;;;;;5.60;3.40;;;;;;;-3.23;78.43;101381.82;84503;1333;22635;-82
2022/01/18 04:36:59;;;;;;;10.10;3.00;;;;;;;-3.26;78.57;101385.49;84460;1329;22625;-82
2022/01/18 04:39:08;;;;;;;14.20;3.20;;;;;;;-3.26;78.55;101388.54;84476;1331;22818;-79
2022/01/18 04:41:25;;;;;;;4.60;2.90;;;;;;;-3.24;78.49;101390.00;84475;1334;22588;-79
2022/01/18 04:43:49;;;;;;;9.50;4.00;;;;;;;-3.20;78.82;101392.15;84379;1330;22970;-80
2022/01/18 04:48:30;;;;;;;39.90;16.70;;;;;;;-3.12;78.75;101404.89;84493;1334;22600;-83
2022/01/18 04:50:39;;;;;;;46.20;17.50;;;;;;;-3.09;78.91;101405.67;84489;1334;24483;-80
2022/01/18 04:52:52;;;;;;;44.30;17.50;;;;;;;-3.06;78.78;101408.33;84482;1334;22643;-82
2022/01/18 04:55:02;;;;;;;36.40;16.30;;;;;;;-3.04;78.87;101411.99;84472;1335;24272;-79
2022/01/18 04:59:39;;;;;;;54.50;23.70;;;;;;;-3.01;78.84;101422.67;84410;1334;25087;-82
2022/01/18 05:01:51;;;;;;;47.90;21.30;;;;;;;-2.96;78.98;101430.00;84493;1334;22861;-82
2022/01/18 05:04:00;;;;;;;38.50;16.70;;;;;;;-2.93;79.08;101434.58;84483;1335;22613;-79
2022/01/18 05:06:13;;;;;;;38.90;16.20;;;;;;;-2.85;79.13;101446.45;84464;1333;22608;-78
2022/01/18 05:08:25;;;;;;;29.60;12.60;;;;;;;-2.76;79.15;101447.26;84498;1330;22610;-79
2022/01/18 05:10:34;;;;;;;16.10;6.80;;;;;;;-2.66;79.14;101449.63;84470;1334;22612;-78
2022/01/18 05:12:49;;;;;;;14.70;7.50;;;;;;;-2.55;79.18;101448.30;83772;1332;1003047;-79
2022/01/18 05:14:59;;;;;;;18.90;9.60;;;;;;;-2.44;79.30;101451.56;84507;1328;25609;-79
2022/01/18 05:17:21;;;;;;;17.10;6.40;;;;;;;-2.36;79.13;101439.70;84466;1334;24005;-78
2022/01/18 05:19:41;;;;;;;16.40;5.20;;;;;;;-2.30;78.97;101442.61;84476;1336;22886;-79
2022/01/18 05:24:12;;;;;;;9.80;3.80;;;;;;;-2.29;78.83;101445.19;84225;1337;22662;-79
2022/01/18 05:26:21;;;;;;;9.60;4.10;;;;;;;-2.32;78.59;101443.38;84043;1340;22777;-80
2022/01/18 05:28:30;;;;;;;14.50;4.90;;;;;;;-2.37;78.70;101439.64;84218;1337;22582;-81
2022/01/18 05:30:39;;;;;;;12.80;4.80;;;;;;;-2.42;78.73;101440.87;84464;1335;22629;-81
2022/01/18 05:32:51;;;;;;;11.20;5.60;;;;;;;-2.47;78.61;101443.76;84481;1334;23944;-81
2022/01/18 05:35:03;;;;;;;19.20;7.40;;;;;;;-2.52;78.54;101441.36;83774;1334;1003850;-80
2022/01/18 05:37:13;;;;;;;12.10;5.90;;;;;;;-2.55;78.64;101442.45;84521;1331;22616;-81
2022/01/18 05:39:25;;;;;;;17.30;7.30;;;;;;;-2.58;78.82;101439.48;84492;1335;22721;-80
2022/01/18 05:41:33;;;;;;;13.10;6.20;;;;;;;-2.58;78.80;101437.24;84438;1334;23890;-81
2022/01/18 05:43:45;;;;;;;11.20;6.40;;;;;;;-2.59;78.98;101450.90;84497;1335;22606;-80
2022/01/18 05:45:58;;;;;;;15.90;7.20;;;;;;;-2.57;79.03;101451.45;84495;1335;22606;-78
2022/01/18 05:48:08;;;;;;;14.80;6.80;;;;;;;-2.58;79.06;101446.65;84498;1334;22620;-78
2022/01/18 05:50:20;;;;;;;14.70;6.20;;;;;;;-2.60;79.17;101447.27;84502;1331;22617;-80
2022/01/18 05:52:32;;;;;;;9.20;5.00;;;;;;;-2.63;79.11;101448.05;84491;1332;25298;-77
2022/01/18 05:54:42;;;;;;;8.40;4.10;;;;;;;-2.66;79.04;101452.55;84371;1335;22748;-78
2022/01/18 05:56:52;;;;;;;11.20;5.50;;;;;;;-2.70;79.11;101450.36;84483;1335;24299;-80
2022/01/18 05:59:09;;;;;;;11.60;4.90;;;;;;;-2.76;79.15;101451.70;84471;1335;22612;-81
2022/01/18 06:01:25;;;;;;;8.40;4.30;;;;;;;-2.80;79.32;101454.11;84470;1333;23997;-79
2022/01/18 06:03:39;;;;;;;6.80;3.70;;;;;;;-2.83;79.44;101453.69;84483;1333;24279;-81
2022/01/18 06:08:19;;;;;;;5.70;2.80;;;;;;;-2.85;79.46;101458.06;84497;1334;22679;-76
2022/01/18 06:10:29;;;;;;;7.30;2.90;;;;;;;-2.84;79.59;101459.28;84482;1332;22613;-77
2022/01/18 06:12:41;;;;;;;6.90;2.70;;;;;;;-2.83;79.78;101460.85;84473;1333;22743;-79
2022/01/18 06:14:54;;;;;;;6.70;2.30;;;;;;;-2.84;79.90;101463.91;84549;1330;24253;-77
2022/01/18 06:17:04;;;;;;;9.10;3.90;;;;;;;-2.83;79.89;101466.14;84487;1334;22626;-78
2022/01/18 06:19:16;;;;;;;7.60;2.70;;;;;;;-2.84;80.06;101468.02;84522;1333;22761;-80
2022/01/18 06:21:25;;;;;;;11.20;4.40;;;;;;;-2.85;79.96;101467.09;84493;1334;22702;-77
2022/01/18 06:23:37;;;;;;;11.50;4.90;;;;;;;-2.87;80.01;101470.95;84495;1334;22855;-76
2022/01/18 06:25:47;;;;;;;12.90;4.50;;;;;;;-2.88;80.02;101471.95;84391;1334;23951;-77
2022/01/18 06:27:57;;;;;;;16.10;6.30;;;;;;;-2.86;80.41;101474.75;84391;1334;22621;-79
2022/01/18 06:30:10;;;;;;;10.10;4.40;;;;;;;-2.84;80.28;101478.07;84488;1334;22831;-77
2022/01/18 06:32:22;;;;;;;12.20;4.90;;;;;;;-2.81;80.31;101482.27;84488;1332;22898;-77
2022/01/18 06:34:33;;;;;;;9.80;4.30;;;;;;;-2.77;80.44;101487.52;84484;1330;24381;-77
2022/01/18 06:36:42;;;;;;;8.80;3.90;;;;;;;-2.74;80.57;101490.89;84473;1333;22605;-77
2022/01/18 06:38:52;;;;;;;9.60;4.10;;;;;;;-2.72;80.38;101486.00;84476;1334;23950;-77
2022/01/18 06:41:05;;;;;;;12.70;4.60;;;;;;;-2.70;80.47;101494.27;84514;1335;22618;-78
2022/01/18 06:43:17;;;;;;;10.20;4.90;;;;;;;-2.71;80.40;101490.30;84478;1333;22652;-78
2022/01/18 06:45:26;;;;;;;8.90;3.40;;;;;;;-2.72;80.54;101497.11;84492;1335;22645;-77
2022/01/18 06:47:39;;;;;;;7.40;2.90;;;;;;;-2.72;80.50;101499.48;84497;1336;22648;-80
2022/01/18 06:49:47;;;;;;;6.40;2.70;;;;;;;-2.70;80.60;101503.65;84507;1335;25368;-79
2022/01/18 06:51:59;;;;;;;7.90;2.50;;;;;;;-2.67;80.56;101509.02;84504;1333;22632;-79
2022/01/18 06:54:14;;;;;;;10.40;3.40;;;;;;;-2.62;80.58;101509.88;84456;1335;22893;-78
2022/01/18 06:56:26;;;;;;;5.00;2.20;;;;;;;-2.58;80.61;101506.27;84541;1335;22600;-78
2022/01/18 06:58:35;;;;;;;19.30;6.20;;;;;;;-2.52;80.81;101509.69;84489;1316;22606;-78
2022/01/18 07:00:44;;;;;;;14.40;6.60;;;;;;;-2.47;80.86;101515.84;84548;1334;22630;-79
2022/01/18 07:02:53;;;;;;;11.30;3.80;;;;;;;-2.43;80.97;101524.02;84549;1332;22709;-79
2022/01/18 07:05:06;;;;;;;10.30;2.70;;;;;;;-2.38;80.85;101533.08;84474;1332;26530;-76
2022/01/18 07:07:18;;;;;;;9.10;2.70;;;;;;;-2.36;80.71;101531.97;84468;1331;22616;-76
2022/01/18 07:09:27;;;;;;;7.30;3.70;;;;;;;-2.33;80.69;101528.63;84469;1334;22603;-75
2022/01/18 07:11:36;;;;;;;16.20;5.10;;;;;;;-2.31;80.73;101533.50;83728;1335;1003375;-76
2022/01/18 07:13:48;;;;;;;9.50;4.00;;;;;;;-2.29;80.73;101532.17;84471;1333;23904;-76
2022/01/18 07:15:57;;;;;;;11.20;4.70;;;;;;;-2.25;80.51;101538.30;83782;1334;1002968;-79
2022/01/18 07:18:10;;;;;;;11.80;3.80;;;;;;;-2.20;80.79;101542.92;84477;1335;22615;-78
2022/01/18 07:20:19;;;;;;;14.10;4.00;;;;;;;-2.11;80.73;101539.08;84474;1332;22616;-78
2022/01/18 07:22:31;;;;;;;13.50;3.60;;;;;;;-2.00;80.86;101543.23;84481;1335;22672;-76
2022/01/18 07:24:43;;;;;;;7.10;4.70;;;;;;;-1.84;80.89;101543.36;84452;1333;25376;-76
2022/01/18 07:26:52;;;;;;;9.70;3.60;;;;;;;-1.56;81.11;101543.37;84363;1333;22800;-77
2022/01/18 07:29:02;;;;;;;10.00;4.20;;;;;;;-1.24;81.05;101546.54;84369;1332;22605;-79
2022/01/18 07:31:14;;;;;;;7.50;4.10;;;;;;;-0.71;81.38;101548.02;84504;1335;24365;-80
2022/01/18 07:33:25;;;;;;;9.50;3.30;;;;;;;-0.10;81.35;101554.54;84460;1334;25462;-79
2022/01/18 07:35:37;;;;;;;8.00;4.30;;;;;;;0.59;81.36;101553.39;84483;1332;23985;-77
2022/01/18 07:37:47;;;;;;;5.40;2.50;;;;;;;1.32;80.61;101553.67;84457;1335;22592;-78
2022/01/18 07:39:59;;;;;;;8.70;3.30;;;;;;;1.97;79.49;101562.36;84503;1335;22640;-77
2022/01/18 07:42:11;;;;;;;6.60;3.40;;;;;;;2.60;77.99;101561.92;84466;1332;22893;-78
2022/01/18 07:44:23;;;;;;;10.40;3.50;;;;;;;3.20;76.33;101564.39;84478;1334;24271;-77
2022/01/18 07:46:31;;;;;;;8.30;3.20;;;;;;;3.85;75.50;101573.34;84475;1329;25311;-77
2022/01/18 07:48:40;;;;;;;10.80;5.00;;;;;;;4.51;73.49;101570.02;84464;1333;22632;-78
2022/01/18 07:50:51;;;;;;;18.40;6.90;;;;;;;5.12;71.35;101575.70;84460;1333;23964;-78
2022/01/18 07:52:59;;;;;;;15.80;8.50;;;;;;;5.61;69.97;101581.38;84472;1331;22636;-77
2022/01/18 07:55:10;;;;;;;5.20;3.10;;;;;;;6.00;68.91;101580.75;84492;1334;22732;-79
2022/01/18 07:57:22;;;;;;;4.80;2.60;;;;;;;6.34;66.64;101579.17;84428;1334;23923;-79
2022/01/18 07:59:34;;;;;;;5.10;2.80;;;;;;;6.55;63.88;101580.02;84499;1332;22612;-79
2022/01/18 08:01:43;;;;;;;6.30;2.50;;;;;;;6.58;62.96;101577.75;84463;1335;25105;-78
2022/01/18 08:03:52;;;;;;;6.60;3.00;;;;;;;6.60;62.52;101583.98;84470;1332;22719;-78
2022/01/18 08:06:04;;;;;;;6.70;3.10;;;;;;;6.62;62.68;101593.17;84469;1335;23089;-80
2022/01/18 08:08:16;;;;;;;8.20;3.70;;;;;;;6.60;61.67;101598.38;84462;1332;22612;-79
2022/01/18 08:10:30;;;;;;;6.70;3.60;;;;;;;6.50;62.03;101597.70;84489;1336;23861;-77
2022/01/18 08:12:40;;;;;;;7.70;2.90;;;;;;;6.48;61.64;101603.77;84425;1326;24322;-78
2022/01/18 08:14:50;;;;;;;6.00;2.80;;;;;;;6.42;61.09;101604.29;84494;1335;22645;-78
2022/01/18 08:17:01;;;;;;;4.50;2.50;;;;;;;6.27;61.07;101610.20;84472;1336;22760;-79
2022/01/18 08:21:32;;;;;;;5.70;2.80;;;;;;;5.69;61.00;101618.77;85321;1315;25386;-79
2022/01/18 08:23:41;;;;;;;5.60;2.70;;;;;;;5.29;61.45;101619.88;84379;1334;22667;-78
2022/01/18 08:25:53;;;;;;;5.20;3.40;;;;;;;4.92;61.45;101620.39;84494;1332;23040;-79
2022/01/18 08:28:03;;;;;;;8.40;4.00;;;;;;;4.57;61.88;101622.27;84585;1327;22609;-79
2022/01/18 08:30:19;;;;;;;9.00;3.90;;;;;;;4.24;62.50;101629.11;84379;1335;22680;-78
2022/01/18 08:32:31;;;;;;;6.80;3.60;;;;;;;3.92;63.15;101631.77;84457;1325;22698;-80
2022/01/18 08:34:41;;;;;;;6.00;3.20;;;;;;;3.66;63.52;101637.02;84472;1334;22606;-80
2022/01/18 08:36:53;;;;;;;7.50;2.60;;;;;;;3.39;63.82;101641.20;84311;1337;22755;-78
2022/01/18 08:39:03;;;;;;;6.40;2.90;;;;;;;3.09;64.49;101652.38;84451;1334;23966;-77
2022/01/18 08:41:12;;;;;;;8.50;3.20;;;;;;;2.85;64.75;101662.90;84468;1334;25080;-77
2022/01/18 08:43:21;;;;;;;6.00;2.80;;;;;;;2.66;65.41;101660.73;84512;1328;25369;-78
2022/01/18 08:45:30;;;;;;;5.00;2.70;;;;;;;2.55;65.82;101672.64;84462;1333;23978;-79
2022/01/18 08:47:42;;;;;;;7.20;2.40;;;;;;;2.48;66.08;101676.48;84441;1335;22614;-80
2022/01/18 08:49:51;;;;;;;5.20;2.50;;;;;;;2.51;66.45;101682.23;84482;1332;22664;-80
2022/01/18 08:52:01;;;;;;;6.70;3.00;;;;;;;2.55;66.63;101684.35;84470;1335;22595;-78
2022/01/18 08:54:13;;;;;;;8.90;3.30;;;;;;;2.69;66.98;101697.48;84500;1333;24283;-78
2022/01/18 08:56:26;;;;;;;6.70;2.90;;;;;;;2.79;66.62;101694.70;84473;1335;24130;-79
2022/01/18 08:58:36;;;;;;;9.40;2.80;;;;;;;2.90;66.54;101700.73;82398;1329;1005933;-80
2022/01/18 09:03:05;;;;;;;8.40;2.70;;;;;;;2.82;66.82;101722.17;85383;1317;24286;-76
2022/01/18 09:05:14;;;;;;;6.10;3.00;;;;;;;2.79;66.06;101727.11;84516;1332;25592;-77
2022/01/18 09:07:26;;;;;;;5.60;2.80;;;;;;;2.72;66.63;101725.79;84545;1332;25450;-80
2022/01/18 09:09:35;;;;;;;7.10;2.60;;;;;;;2.87;67.12;101723.95;84522;1334;22597;-78
2022/01/18 09:11:47;;;;;;;8.50;3.50;;;;;;;3.10;66.75;101722.40;84525;1332;24209;-78
2022/01/18 09:13:59;;;;;;;8.80;4.10;;;;;;;3.24;66.12;101734.67;84475;1332;23885;-77
2022/01/18 09:16:10;;;;;;;7.90;3.00;;;;;;;3.30;66.05;101733.38;84480;1334;24220;-77
2022/01/18 09:18:19;;;;;;;;;;;;;;;3.55;66.12;101734.39;84498;1334;22577;-80
2022/01/18 09:20:31;;;;;;;7.90;3.20;;;;;;;3.78;65.30;101736.05;84517;1336;22589;-77
2022/01/18 09:22:42;;;;;;;11.00;3.40;;;;;;;4.07;64.99;101739.98;84440;1335;25475;-78
2022/01/18 09:24:51;;;;;;;9.90;3.20;;;;;;;4.13;64.65;101733.85;84472;1336;22856;-78
2022/01/18 09:27:04;;;;;;;9.20;4.30;;;;;;;4.18;64.36;101735.79;84470;1333;22680;-78
2022/01/18 09:29:14;;;;;;;8.20;3.10;;;;;;;4.19;64.27;101737.18;84484;1327;25383;-77
2022/01/18 09:31:24;;;;;;;9.70;3.60;;;;;;;4.16;63.82;101745.61;84473;1326;24353;-79
2022/01/18 09:33:33;;;;;;;8.00;3.50;;;;;;;4.13;63.97;101746.80;84478;1333;22827;-79
2022/01/18 09:35:42;;;;;;;12.50;3.80;;;;;;;4.24;63.77;101745.88;84486;1334;25314;-79
2022/01/18 09:37:51;;;;;;;9.40;3.50;;;;;;;4.41;63.81;101747.24;84478;1335;25293;-79
2022/01/18 09:40:00;;;;;;;10.40;4.00;;;;;;;4.62;63.12;101752.11;84465;1333;22599;-78
2022/01/18 09:42:10;;;;;;;7.80;3.40;;;;;;;4.68;62.47;101755.95;84400;1336;22735;-78
2022/01/18 09:44:19;;;;;;;9.40;3.00;;;;;;;4.74;62.06;101759.12;84482;1332;24735;-77
2022/01/18 09:46:31;;;;;;;12.20;3.50;;;;;;;4.86;62.06;101772.02;84464;1332;22646;-78
2022/01/18 09:48:40;;;;;;;7.50;4.10;;;;;;;5.10;62.44;101775.65;84416;1335;22612;-78
2022/01/18 09:50:52;;;;;;;6.10;3.40;;;;;;;5.44;62.15;101774.13;84468;1333;24287;-78
2022/01/18 09:53:02;;;;;;;7.00;3.80;;;;;;;5.86;61.74;101771.05;84483;1334;25531;-77
2022/01/18 09:55:13;;;;;;;5.00;3.60;;;;;;;6.15;60.73;101772.02;84473;1335;22673;-77
2022/01/18 09:57:22;;;;;;;5.40;2.80;;;;;;;6.47;59.69;101777.46;84476;1333;22819;-77
2022/01/18 09:59:32;;;;;;;6.10;3.60;;;;;;;6.74;60.09;101779.91;84471;1333;25393;-78
2022/01/18 10:01:41;;;;;;;6.40;3.50;;;;;;;7.10;58.85;101785.28;84475;1326;22932;-77
2022/01/18 10:03:50;;;;;;;5.90;3.00;;;;;;;7.33;58.03;101783.00;84459;1332;23907;-77
2022/01/18 10:05:59;;;;;;;5.80;3.30;;;;;;;7.44;58.08;101785.05;84489;1334;25299;-78
2022/01/18 10:08:12;;;;;;;7.70;4.00;;;;;;;7.70;57.96;101779.59;84483;1329;22625;-77
2022/01/18 10:10:24;;;;;;;7.00;4.50;;;;;;;7.82;56.26;101784.94;84475;1334;22696;-77
2022/01/18 10:12:36;;;;;;;6.80;3.40;;;;;;;7.79;54.93;101784.42;84482;1337;22872;-78
2022/01/18 10:14:52;;;;;;;7.10;2.60;;;;;;;7.73;54.92;101782.88;84465;1332;22635;-78
2022/01/18 10:17:04;;;;;;;6.10;3.00;;;;;;;7.61;55.17;101785.88;84465;1330;22775;-78
2022/01/18 10:19:15;;;;;;;7.30;4.00;;;;;;;7.45;54.89;101782.10;84460;1333;22652;-78
2022/01/18 10:21:35;;;;;;;8.70;4.60;;;;;;;7.41;56.29;101785.92;84414;1334;24249;-78
2022/01/18 10:23:49;;;;;;;;;;;;;;;7.49;55.51;101789.03;84504;1332;22585;-77
2022/01/18 10:25:58;;;;;;;6.00;3.10;;;;;;;7.44;55.84;101793.39;84488;1333;22883;-78
2022/01/18 10:28:07;;;;;;;6.50;3.50;;;;;;;7.55;55.85;101797.70;84479;1334;22859;-77
2022/01/18 10:30:22;;;;;;;5.40;3.60;;;;;;;7.66;56.27;101800.61;84484;1335;25549;-75
2022/01/18 10:32:39;;;;;;;7.60;3.40;;;;;;;7.70;55.91;101806.68;84471;1334;26527;-78
2022/01/18 10:37:30;;;;;;;5.80;3.40;;;;;;;7.15;54.26;101815.80;84013;1340;22736;-76
2022/01/18 10:39:41;;;;;;;8.20;4.00;;;;;;;6.64;55.28;101827.42;84468;1333;22669;-76
2022/01/18 10:41:53;;;;;;;7.70;3.10;;;;;;;6.26;56.29;101826.13;84492;1333;25346;-75
2022/01/18 10:44:11;;;;;;;8.80;3.70;;;;;;;5.94;56.56;101831.54;84448;1331;22615;-77
2022/01/18 10:46:22;;;;;;;8.00;3.60;;;;;;;5.63;57.71;101843.65;84382;1338;22733;-77
2022/01/18 10:48:31;;;;;;;4.20;3.10;;;;;;;5.39;58.23;101843.33;84488;1334;22626;-77
2022/01/18 10:50:42;;;;;;;10.50;2.80;;;;;;;5.11;58.38;101842.08;84452;1330;22616;-77
2022/01/18 10:52:52;;;;;;;6.20;3.70;;;;;;;4.82;58.69;101841.99;84475;1333;22861;-80
2022/01/18 10:55:05;;;;;;;6.30;2.50;;;;;;;4.52;59.09;101846.72;84483;1335;22619;-80
2022/01/18 10:57:21;;;;;;;5.80;3.50;;;;;;;4.25;59.93;101853.32;84520;1335;22617;-79
2022/01/18 10:59:31;;;;;;;4.00;2.40;;;;;;;4.05;60.46;101852.57;83118;1329;1003717;-78
2022/01/18 11:01:44;;;;;;;10.40;3.40;;;;;;;3.87;60.67;101850.77;84466;1337;22750;-79
2022/01/18 11:04:17;;;;;;;8.90;3.70;;;;;;;3.73;61.55;101860.77;84490;1334;25460;-77
2022/01/18 11:06:27;;;;;;;4.70;2.90;;;;;;;3.56;61.77;101857.93;84121;1338;23063;-80